Time;durP1;ratioP1;P1;durP2;ratioP2;P2;SDS_P1;SDS_P2;PMS_P1;PMS_P2;Temp;Humidity;BMP_temperature;BMP_pressure;BME280_temperature;BME280_humidity;BME280_pressure;Samples;Min_cycle;Max_cycle;Signal;HPM_P1;HPM_P2
2023/01/01 00:01:13;;;;;;;3.15;1.10;;;;;;;11.70;44.56;98109.63;6190810;23;20004;-93
2023/01/01 00:03:39;;;;;;;2.85;1.20;;;;;;;11.78;44.82;98126.03;6189927;23;20004;-94
2023/01/01 00:06:09;;;;;;;3.40;1.30;;;;;;;11.84;44.49;98141.06;6189582;23;20059;-93
2023/01/01 00:08:35;;;;;;;4.57;1.20;;;;;;;11.70;44.56;98113.09;6190729;23;20015;-93
2023/01/01 00:11:02;;;;;;;4.05;1.13;;;;;;;11.90;44.45;98154.50;6189951;23;20043;-92
2023/01/01 00:13:28;;;;;;;3.45;1.30;;;;;;;11.77;44.42;98135.13;6190264;23;20031;-93
2023/01/01 00:16:03;;;;;;;2.35;1.27;;;;;;;11.83;44.42;98142.16;6190611;23;20050;-93
2023/01/01 00:18:29;;;;;;;4.00;1.33;;;;;;;12.04;44.70;98169.19;6190926;23;20036;-93
2023/01/01 00:21:04;;;;;;;3.70;1.25;;;;;;;11.92;44.63;98160.47;6190480;23;20010;-94
2023/01/01 00:23:29;;;;;;;3.45;1.20;;;;;;;11.86;44.61;98150.72;6191039;23;20004;-94
2023/01/01 00:25:55;;;;;;;2.15;0.82;;;;;;;11.62;44.72;98137.59;6190634;23;20007;-93
2023/01/01 00:28:21;;;;;;;2.90;1.20;;;;;;;11.98;44.79;98194.25;6190549;23;20099;-93
2023/01/01 00:30:47;;;;;;;3.00;1.15;;;;;;;11.76;44.80;98154.09;6191155;23;20034;-94
2023/01/01 00:33:12;;;;;;;4.45;1.27;;;;;;;11.85;44.85;98168.66;6190782;23;20027;-94
2023/01/01 00:35:38;;;;;;;3.13;1.20;;;;;;;11.75;44.75;98164.00;6190862;23;20015;-93
2023/01/01 00:38:05;;;;;;;4.57;1.25;;;;;;;11.94;44.47;98190.47;6214493;23;20058;-93
2023/01/01 00:40:31;;;;;;;3.97;1.08;;;;;;;11.83;44.35;98187.66;6190219;23;20437;-93
2023/01/01 00:42:57;;;;;;;4.03;1.05;;;;;;;11.89;44.50;98185.84;6190433;23;20015;-93
2023/01/01 00:45:23;;;;;;;2.38;1.00;;;;;;;11.81;44.71;98173.72;6190732;23;20039;-93
2023/01/01 00:47:52;;;;;;;3.40;1.10;;;;;;;11.95;44.47;98203.63;6191316;23;20004;-93
2023/01/01 00:50:19;;;;;;;3.22;0.98;;;;;;;11.88;44.55;98200.25;6190192;23;20039;-93
2023/01/01 00:52:44;;;;;;;2.63;1.00;;;;;;;12.06;44.62;98239.34;6189670;23;20086;-93
2023/01/01 00:55:10;;;;;;;2.35;1.00;;;;;;;11.78;44.68;98192.94;6214880;23;20017;-93
2023/01/01 00:57:36;;;;;;;4.38;1.10;;;;;;;11.90;44.49;98211.56;6189487;23;20087;-94
2023/01/01 01:00:03;;;;;;;2.85;1.08;;;;;;;11.73;44.58;98198.22;6189405;23;20089;-94
2023/01/01 01:02:29;;;;;;;3.70;1.10;;;;;;;11.82;44.44;98212.78;6190334;23;20051;-94
2023/01/01 01:04:54;;;;;;;3.10;0.90;;;;;;;11.97;44.49;98248.84;6214088;23;20003;-94
2023/01/01 01:07:20;;;;;;;1.70;1.02;;;;;;;11.94;44.55;98254.72;6190004;23;20004;-93
2023/01/01 01:09:46;;;;;;;4.18;1.20;;;;;;;11.78;44.50;98233.09;6189915;23;20314;-93
2023/01/01 01:12:11;;;;;;;2.28;0.98;;;;;;;11.92;44.56;98262.19;6189671;23;20425;-93
2023/01/01 01:14:37;;;;;;;2.00;0.80;;;;;;;11.96;44.55;98271.34;6190061;23;20012;-94
2023/01/01 01:17:03;;;;;;;4.00;1.00;;;;;;;11.84;44.25;98261.50;6214760;23;20451;-93
2023/01/01 01:19:29;;;;;;;4.43;1.33;;;;;;;11.93;44.45;98288.69;6190403;23;20085;-94
2023/01/01 01:21:55;;;;;;;3.55;1.35;;;;;;;12.07;44.45;98315.91;6190253;23;20332;-93
2023/01/01 01:24:20;;;;;;;2.72;0.98;;;;;;;11.88;44.54;98301.16;6189475;23;20389;-93
2023/01/01 01:26:46;;;;;;;3.22;1.00;;;;;;;11.76;44.58;98271.84;6190019;23;20015;-93
2023/01/01 01:29:12;;;;;;;1.85;0.88;;;;;;;12.02;44.55;98323.88;6214631;23;20015;-95
2023/01/01 01:31:38;;;;;;;3.08;1.13;;;;;;;11.86;44.26;98297.94;6215285;23;20008;-94
2023/01/01 01:34:03;;;;;;;1.30;0.80;;;;;;;11.81;44.52;98285.28;6188899;23;20004;-93
2023/01/01 01:36:38;;;;;;;2.65;0.93;;;;;;;12.15;44.57;98344.13;6190062;23;20004;-94
2023/01/01 01:39:04;;;;;;;2.42;0.95;;;;;;;11.92;44.25;98323.75;6191402;23;20020;-94
2023/01/01 01:41:29;;;;;;;2.85;1.13;;;;;;;11.88;44.29;98319.91;6191850;23;20088;-93
2023/01/01 01:44:00;;;;;;;3.90;1.42;;;;;;;11.86;44.40;98311.31;6191514;23;20000;-93
2023/01/01 01:46:35;;;;;;;1.92;0.90;;;;;;;11.75;44.54;98289.75;6193091;23;20303;-93
2023/01/01 01:49:15;;;;;;;2.28;0.98;;;;;;;11.85;44.48;98321.22;6192484;23;20258;-93
2023/01/01 01:51:41;;;;;;;1.73;0.93;;;;;;;11.89;44.37;98321.53;6192676;23;20000;-94
2023/01/01 01:54:13;;;;;;;2.17;0.90;;;;;;;11.76;44.47;98315.47;6215418;23;20012;-94
2023/01/01 01:56:46;;;;;;;2.08;0.98;;;;;;;11.83;44.28;98332.19;6192515;23;20704;-94
2023/01/01 01:59:12;;;;;;;1.25;0.75;;;;;;;11.93;44.36;98346.78;6192238;23;20012;-94
2023/01/01 02:01:38;;;;;;;1.45;0.88;;;;;;;11.85;44.61;98342.63;6191816;23;20068;-94
2023/01/01 02:04:03;;;;;;;0.80;0.73;;;;;;;11.89;44.57;98340.28;6190952;23;20019;-94
2023/01/01 02:06:30;;;;;;;1.90;0.65;;;;;;;11.91;44.38;98348.91;6191766;23;20034;-93
2023/01/01 02:08:57;;;;;;;1.92;0.75;;;;;;;11.83;44.38;98334.03;6191361;23;20016;-93
2023/01/01 02:11:23;;;;;;;2.03;0.82;;;;;;;11.76;44.28;98341.41;6191218;23;20008;-94
2023/01/01 02:13:49;;;;;;;3.80;1.02;;;;;;;11.90;43.89;98357.94;6191121;23;20008;-93
2023/01/01 02:16:39;;;;;;;2.13;0.90;;;;;;;11.89;44.17;98357.13;6190924;23;20035;-93
2023/01/01 02:19:26;;;;;;;1.63;1.00;;;;;;;12.11;44.41;98391.22;6193764;23;20061;-93
2023/01/01 02:22:21;;;;;;;2.42;0.80;;;;;;;11.90;44.30;98372.16;6215754;23;20067;-94
2023/01/01 02:24:59;;;;;;;2.80;0.77;;;;;;;11.80;44.12;98355.94;6214119;23;20009;-94
2023/01/01 02:27:46;;;;;;;2.00;0.80;;;;;;;12.14;44.36;98402.25;6216079;23;20012;-94
2023/01/01 02:30:13;;;;;;;2.13;0.70;;;;;;;11.86;44.18;98367.53;6241288;23;20039;-94
2023/01/01 02:32:39;;;;;;;2.28;0.80;;;;;;;12.13;44.25;98416.69;6191477;23;20028;-95
2023/01/01 02:37:55;;;;;;;2.08;0.80;;;;;;;11.84;44.34;98395.34;6220675;23;20018;-94
2023/01/01 02:40:22;;;;;;;1.92;0.70;;;;;;;11.89;44.31;98415.22;6191216;23;20004;-95
2023/01/01 02:42:48;;;;;;;2.00;1.00;;;;;;;11.80;44.14;98394.22;6191660;23;20004;-94
2023/01/01 02:45:13;;;;;;;2.22;0.63;;;;;;;11.93;44.43;98408.34;6191279;23;20050;-94
2023/01/01 02:47:39;;;;;;;1.80;0.90;;;;;;;11.88;44.04;98402.88;6190937;23;20012;-93
2023/01/01 02:50:38;;;;;;;1.73;0.75;;;;;;;12.03;44.16;98427.25;6190414;23;20008;-94
2023/01/01 02:53:27;;;;;;;2.50;1.10;;;;;;;11.87;44.29;98407.44;6175086;23;20040;-94
2023/01/01 02:56:07;;;;;;;2.63;0.80;;;;;;;12.14;44.03;98445.09;6192367;23;20008;-93
2023/01/01 03:01:28;;;;;;;1.25;0.68;;;;;;;12.13;44.09;98458.72;6243966;23;20023;-94
2023/01/01 03:04:21;;;;;;;1.48;0.63;;;;;;;12.12;44.33;98479.31;6216461;23;20589;-95
2023/01/01 03:06:55;;;;;;;1.55;0.80;;;;;;;11.82;43.90;98432.25;6242945;23;20000;-95
2023/01/01 03:09:34;;;;;;;2.13;0.83;;;;;;;11.92;44.08;98438.88;6217226;23;20357;-95
2023/01/01 03:12:38;;;;;;;0.85;0.63;;;;;;;11.94;43.97;98447.44;6216262;23;20591;-94
2023/01/01 03:15:11;;;;;;;2.30;0.90;;;;;;;11.84;44.14;98440.84;6214111;23;20062;-94
2023/01/01 03:17:39;;;;;;;2.30;1.10;;;;;;;11.89;44.06;98442.00;6192833;23;20008;-94
2023/01/01 03:20:08;;;;;;;2.22;1.02;;;;;;;11.82;44.04;98448.31;6192465;23;20984;-93
2023/01/01 03:22:34;;;;;;;1.20;0.60;;;;;;;11.93;44.03;98451.16;6192490;23;20000;-94
2023/01/01 03:25:26;;;;;;;0.98;0.65;;;;;;;11.93;44.12;98461.88;6192383;23;20408;-94
2023/01/01 03:27:55;;;;;;;1.30;0.85;;;;;;;11.76;43.94;98451.97;6219042;23;20012;-95
2023/01/01 03:30:21;;;;;;;2.50;0.73;;;;;;;11.98;43.84;98508.28;6188902;23;20015;-94
2023/01/01 03:32:59;;;;;;;2.72;0.80;;;;;;;11.71;43.80;98462.59;6191458;23;20004;-94
2023/01/01 03:35:48;;;;;;;1.98;0.70;;;;;;;11.83;44.35;98487.41;6193987;23;20328;-94
2023/01/01 03:38:21;;;;;;;1.55;0.80;;;;;;;11.82;44.03;98477.75;6220686;23;19996;-94
2023/01/01 03:40:47;;;;;;;1.67;0.75;;;;;;;11.93;44.03;98488.66;6191361;23;20012;-94
2023/01/01 03:43:20;;;;;;;2.63;0.70;;;;;;;11.90;43.82;98497.13;6190777;23;20015;-94
2023/01/01 03:45:48;;;;;;;1.88;0.70;;;;;;;11.89;43.93;98495.53;6191129;23;20042;-95
2023/01/01 03:48:14;;;;;;;1.80;1.00;;;;;;;11.82;43.90;98485.78;6190226;23;20034;-95
2023/01/01 03:50:48;;;;;;;1.67;0.80;;;;;;;12.18;43.72;98529.22;6215721;23;20469;-94
2023/01/01 03:53:17;;;;;;;2.45;1.00;;;;;;;12.19;43.81;98528.19;6241183;23;20012;-94
2023/01/01 03:55:45;;;;;;;1.42;0.70;;;;;;;11.95;43.51;98503.44;6241140;23;20008;-94
2023/01/01 03:58:25;;;;;;;1.65;0.70;;;;;;;12.01;43.63;98509.66;6191308;23;20008;-96
2023/01/01 04:01:07;;;;;;;2.97;0.70;;;;;;;12.02;43.45;98522.81;6191382;23;20008;-95
2023/01/01 04:03:33;;;;;;;1.90;0.63;;;;;;;11.81;43.58;98488.69;6216929;23;20011;-95
2023/01/01 04:06:02;;;;;;;1.40;0.68;;;;;;;11.95;43.66;98516.81;6191173;23;20083;-95
2023/01/01 04:08:27;;;;;;;1.77;0.82;;;;;;;11.93;43.49;98504.72;6191424;23;20153;-95
2023/01/01 04:10:57;;;;;;;1.27;0.70;;;;;;;11.91;43.67;98504.16;6190710;23;20083;-94
2023/01/01 04:13:22;;;;;;;1.45;0.70;;;;;;;11.99;43.41;98511.78;6191671;23;20393;-95
2023/01/01 04:15:49;;;;;;;2.25;0.80;;;;;;;12.05;43.68;98534.91;6190577;23;20008;-95
2023/01/01 04:18:14;;;;;;;1.35;0.80;;;;;;;11.89;43.60;98522.28;6186604;23;20083;-95
2023/01/01 04:20:40;;;;;;;1.58;0.55;;;;;;;11.99;43.36;98522.50;6190779;23;20069;-94
2023/01/01 04:23:06;;;;;;;1.65;0.70;;;;;;;11.98;43.28;98536.91;6191075;23;20087;-94
2023/01/01 04:25:31;;;;;;;1.83;0.60;;;;;;;11.98;43.57;98528.88;6186265;23;20499;-95
2023/01/01 04:27:57;;;;;;;1.90;0.70;;;;;;;12.11;43.42;98547.31;6211717;23;20023;-94
2023/01/01 04:30:23;;;;;;;1.75;0.60;;;;;;;11.97;43.07;98530.75;6190372;23;20310;-94
2023/01/01 04:32:49;;;;;;;1.10;0.70;;;;;;;12.11;43.30;98547.31;6190102;23;20296;-95
2023/01/01 04:35:14;;;;;;;1.33;0.60;;;;;;;12.11;43.08;98554.56;6189822;23;20004;-94
2023/01/01 04:37:41;;;;;;;1.70;0.90;;;;;;;12.11;43.30;98558.03;6190291;23;20095;-94
2023/01/01 04:40:07;;;;;;;1.08;0.60;;;;;;;12.08;43.30;98563.88;6189676;23;20001;-94
2023/01/01 04:42:33;;;;;;;1.83;0.73;;;;;;;12.10;43.19;98555.59;6190069;23;20463;-94
2023/01/01 04:44:59;;;;;;;2.35;0.82;;;;;;;12.11;43.24;98568.75;6190158;23;19996;-94
2023/01/01 04:47:27;;;;;;;2.53;1.00;;;;;;;12.14;43.11;98578.97;6190439;23;20008;-95
2023/01/01 04:49:53;;;;;;;0.98;0.73;;;;;;;12.16;43.21;98573.38;6191436;23;20015;-94
2023/01/01 04:52:19;;;;;;;2.00;0.88;;;;;;;12.16;43.09;98587.56;6189740;23;20146;-93
2023/01/01 04:54:45;;;;;;;1.83;0.60;;;;;;;12.11;43.21;98584.81;6189484;23;20440;-94
2023/01/01 04:57:11;;;;;;;2.42;0.70;;;;;;;12.14;43.19;98587.00;6190321;23;20001;-94
2023/01/01 04:59:36;;;;;;;1.77;0.75;;;;;;;12.15;43.27;98593.16;6190162;23;20008;-93
2023/01/01 05:02:02;;;;;;;2.60;0.80;;;;;;;12.25;43.13;98611.28;6189421;23;20069;-94
2023/01/01 05:04:28;;;;;;;2.05;0.70;;;;;;;12.09;42.93;98586.94;6189775;23;20004;-94
2023/01/01 06:04:56;;;;;;;2.03;0.60;;;;;;;12.38;42.49;98657.34;6247474;22;20031;-93
2023/01/01 06:07:22;;;;;;;0.77;0.40;;;;;;;12.43;42.38;98659.25;6221262;22;20015;-94
2023/01/01 06:09:47;;;;;;;1.52;0.60;;;;;;;12.43;42.39;98656.59;6221167;22;20010;-95
2023/01/01 06:12:13;;;;;;;2.15;1.00;;;;;;;12.47;42.68;98673.81;6220873;22;20083;-94
2023/01/01 06:14:38;;;;;;;1.15;0.60;;;;;;;12.48;42.47;98675.44;6221218;22;20004;-93
2023/01/01 06:17:04;;;;;;;1.15;0.70;;;;;;;12.38;42.31;98664.53;6221776;22;20026;-94
2023/01/01 06:19:30;;;;;;;1.48;0.68;;;;;;;12.49;42.21;98687.78;6220808;22;20053;-94
2023/01/01 06:21:56;;;;;;;2.35;0.80;;;;;;;12.46;42.24;98688.25;6221167;22;20456;-94
2023/01/01 06:24:22;;;;;;;1.42;0.70;;;;;;;12.32;42.32;98668.19;6220806;22;20003;-94
2023/01/01 06:26:47;;;;;;;0.70;0.60;;;;;;;12.27;42.32;98671.59;6220570;22;20003;-94
2023/01/01 06:29:13;;;;;;;1.98;0.80;;;;;;;12.42;42.51;98697.00;6221320;22;20034;-94
2023/01/01 06:31:39;;;;;;;0.98;0.60;;;;;;;12.41;42.31;98688.16;6220700;22;20014;-94
2023/01/01 06:34:04;;;;;;;2.08;0.80;;;;;;;12.10;42.53;98635.94;6220606;22;20518;-94
2023/01/01 06:36:30;;;;;;;1.15;0.70;;;;;;;12.37;42.31;98679.00;6220056;22;20447;-94
2023/01/01 06:38:57;;;;;;;1.50;0.65;;;;;;;12.46;42.27;98690.94;6219045;22;20004;-94
2023/01/01 06:41:24;;;;;;;2.08;0.40;;;;;;;12.40;42.17;98689.25;6221275;22;20038;-94
2023/01/01 06:43:49;;;;;;;1.98;0.60;;;;;;;12.40;42.12;98678.53;6219615;22;20008;-93
2023/01/01 06:46:26;;;;;;;2.55;0.90;;;;;;;12.29;42.29;98672.16;6219808;22;20031;-93
2023/01/01 06:48:54;;;;;;;3.33;0.70;;;;;;;12.19;42.30;98682.69;6220560;22;20007;-93
2023/01/01 06:51:21;;;;;;;1.05;0.50;;;;;;;12.29;42.40;98692.78;6220513;22;20502;-94
2023/01/01 06:53:48;;;;;;;1.45;0.60;;;;;;;12.57;42.27;98732.94;6221105;22;20008;-93
2023/01/01 06:56:15;;;;;;;1.55;0.80;;;;;;;12.28;42.06;98693.81;6219757;22;20000;-93
2023/01/01 06:58:41;;;;;;;0.82;0.60;;;;;;;12.32;42.09;98689.63;6220215;22;20014;-93
2023/01/01 07:01:09;;;;;;;2.97;0.70;;;;;;;12.40;42.08;98700.75;6219919;22;20008;-93
2023/01/01 07:03:35;;;;;;;1.52;0.60;;;;;;;12.62;41.95;98726.03;6220840;22;20004;-93
2023/01/01 07:06:01;;;;;;;1.17;0.50;;;;;;;12.58;42.46;98737.25;6219404;22;20015;-93
2023/01/01 07:08:27;;;;;;;1.52;0.60;;;;;;;12.31;42.21;98694.16;6220153;22;20023;-93
2023/01/01 07:10:55;;;;;;;2.08;0.80;;;;;;;12.65;42.14;98745.13;6220141;22;20012;-92
2023/01/01 07:13:21;;;;;;;0.70;0.70;;;;;;;12.37;41.88;98711.16;6221363;22;20253;-93
2023/01/01 07:15:47;;;;;;;1.77;0.63;;;;;;;12.34;41.93;98707.06;6220287;22;20317;-93
2023/01/01 07:18:13;;;;;;;3.17;0.70;;;;;;;12.44;41.95;98722.53;6219651;22;20010;-93
2023/01/01 07:20:39;;;;;;;0.80;0.50;;;;;;;12.40;42.12;98729.44;6219471;22;20060;-92
2023/01/01 07:23:04;;;;;;;2.10;0.80;;;;;;;12.42;41.87;98740.72;6220152;22;20014;-93
2023/01/01 07:25:30;;;;;;;1.15;0.50;;;;;;;12.50;42.03;98744.84;6219945;22;20014;-92
2023/01/01 07:27:56;;;;;;;0.85;0.45;;;;;;;12.43;41.47;98742.31;6220911;22;20417;-93
2023/01/01 07:30:21;;;;;;;1.60;0.70;;;;;;;12.50;41.88;98755.56;6219821;22;20008;-93
2023/01/01 07:32:55;;;;;;;1.95;0.70;;;;;;;12.31;41.62;98722.81;6220770;22;20405;-93
2023/01/01 07:35:21;;;;;;;1.75;0.68;;;;;;;12.38;42.04;98736.88;6220483;22;20008;-93
2023/01/01 07:37:47;;;;;;;1.33;0.60;;;;;;;12.33;41.56;98736.78;6220118;22;20065;-92
2023/01/01 07:40:12;;;;;;;1.45;0.77;;;;;;;12.51;41.82;98755.34;6219692;22;20014;-94
2023/01/01 07:42:38;;;;;;;2.78;0.70;;;;;;;12.42;41.77;98751.44;6220746;22;20004;-93
2023/01/01 07:45:04;;;;;;;1.35;0.52;;;;;;;12.54;41.58;98776.31;6221007;22;20011;-92
2023/01/01 07:47:30;;;;;;;2.47;0.90;;;;;;;12.39;41.56;98746.53;6220967;22;20011;-92
2023/01/01 07:49:56;;;;;;;1.95;0.60;;;;;;;12.33;41.95;98753.69;6220313;22;20096;-93
2023/01/01 07:52:21;;;;;;;1.52;0.60;;;;;;;12.57;41.67;98796.44;6220621;22;20010;-92
2023/01/01 07:54:47;;;;;;;0.95;0.50;;;;;;;12.44;41.72;98765.38;6220739;22;20011;-91
2023/01/01 07:57:13;;;;;;;3.10;0.80;;;;;;;12.52;41.67;98782.94;6220405;22;20004;-93
2023/01/01 07:59:39;;;;;;;0.80;0.50;;;;;;;12.50;41.74;98777.81;6220574;22;20004;-92
2023/01/01 08:02:04;;;;;;;3.30;0.77;;;;;;;12.49;41.44;98767.38;6221107;22;20026;-92
2023/01/01 08:04:30;;;;;;;0.90;0.50;;;;;;;12.44;41.48;98768.06;6221174;22;20091;-92
2023/01/01 08:06:56;;;;;;;2.47;0.80;;;;;;;12.44;41.54;98765.38;6220998;22;20031;-92
2023/01/01 08:09:22;;;;;;;1.00;0.68;;;;;;;12.52;41.62;98783.78;6220810;22;20094;-93
2023/01/01 08:11:47;;;;;;;1.52;0.70;;;;;;;12.53;41.45;98782.69;6220286;22;20011;-93
2023/01/01 08:14:13;;;;;;;1.33;0.55;;;;;;;12.66;41.52;98810.25;6220149;22;20126;-92
2023/01/01 08:16:39;;;;;;;3.15;0.73;;;;;;;12.62;41.56;98803.75;6220549;22;20014;-92
2023/01/01 08:19:07;;;;;;;1.27;0.70;;;;;;;12.46;41.78;98774.00;6244958;22;20014;-93
2023/01/01 08:21:33;;;;;;;1.40;0.70;;;;;;;12.62;41.51;98809.13;6220587;22;20008;-93
2023/01/01 08:24:05;;;;;;;1.45;0.50;;;;;;;12.52;41.40;98789.13;6219677;22;20000;-92
2023/01/01 08:26:32;;;;;;;1.92;0.50;;;;;;;12.57;41.49;98802.63;6220227;22;20087;-92
2023/01/01 08:28:58;;;;;;;2.60;0.60;;;;;;;12.49;41.26;98805.69;6219856;22;20015;-92
2023/01/01 08:31:24;;;;;;;1.58;0.60;;;;;;;12.49;41.43;98811.03;6219731;22;20015;-93
2023/01/01 08:33:50;;;;;;;0.80;0.50;;;;;;;12.64;41.53;98833.81;6219185;22;20098;-93
2023/01/01 08:36:15;;;;;;;3.10;1.10;;;;;;;12.49;41.10;98811.03;6218497;22;20087;-93
2023/01/01 08:38:42;;;;;;;0.68;0.50;;;;;;;12.47;41.27;98801.59;6219364;22;20010;-93
2023/01/01 08:41:08;;;;;;;1.45;0.60;;;;;;;12.46;41.54;98805.34;6219432;22;20324;-93
2023/01/01 08:43:33;;;;;;;0.98;0.68;;;;;;;12.53;41.17;98801.47;6245064;22;20389;-93
2023/01/01 08:46:02;;;;;;;1.70;0.55;;;;;;;12.68;41.11;98818.91;6218930;22;20065;-93
2023/01/01 08:48:31;;;;;;;1.95;0.70;;;;;;;12.46;41.50;98805.34;6219115;22;20535;-93
2023/01/01 08:51:01;;;;;;;1.13;0.70;;;;;;;12.47;41.20;98805.09;6219165;22;20352;-93
2023/01/01 08:53:28;;;;;;;1.67;0.60;;;;;;;12.73;41.16;98837.75;6220456;22;20068;-93
2023/01/01 08:55:57;;;;;;;0.95;0.55;;;;;;;12.72;41.10;98841.47;6243738;22;20007;-93
2023/01/01 08:58:24;;;;;;;1.38;0.52;;;;;;;12.75;41.30;98852.53;6218312;22;20011;-93
2023/01/01 09:00:50;;;;;;;1.33;0.57;;;;;;;12.72;41.20;98857.56;6218534;22;20078;-94
2023/01/01 09:03:16;;;;;;;2.70;0.75;;;;;;;12.77;41.03;98861.16;6244762;22;20027;-94
2023/01/01 09:05:44;;;;;;;1.50;0.57;;;;;;;12.75;41.20;98865.94;6218455;22;20031;-93
2023/01/01 09:08:13;;;;;;;0.85;0.40;;;;;;;12.79;41.20;98874.31;6219622;22;20007;-93
2023/01/01 09:10:39;;;;;;;2.70;0.70;;;;;;;12.82;41.01;98879.19;6219136;22;20102;-92
2023/01/01 09:13:05;;;;;;;1.33;0.65;;;;;;;12.73;41.23;98875.28;6244089;22;20083;-93
2023/01/01 09:15:30;;;;;;;2.53;0.60;;;;;;;12.71;41.22;98872.00;6219149;22;20008;-94
2023/01/01 09:17:56;;;;;;;1.55;0.57;;;;;;;12.74;40.85;98871.53;6218966;22;20343;-93
2023/01/01 09:20:22;;;;;;;1.73;0.57;;;;;;;12.73;41.31;98875.28;6216609;22;20018;-93
2023/01/01 09:22:47;;;;;;;2.53;0.70;;;;;;;12.75;40.98;98876.66;6243237;22;20082;-93
2023/01/01 09:25:13;;;;;;;1.55;0.70;;;;;;;12.73;41.00;98875.28;6244872;22;20004;-93
2023/01/01 09:27:39;;;;;;;1.05;0.50;;;;;;;12.71;41.10;98867.47;6243726;22;20433;-93
2023/01/01 09:30:05;;;;;;;1.15;0.60;;;;;;;12.68;41.05;98867.16;6218418;22;20010;-93
2023/01/01 09:32:31;;;;;;;0.93;0.60;;;;;;;12.72;40.99;98873.66;6219352;22;20054;-93
2023/01/01 09:34:56;;;;;;;1.88;0.70;;;;;;;12.74;41.04;98876.91;6219297;22;20395;-93
2023/01/01 09:37:26;;;;;;;2.03;0.60;;;;;;;12.82;40.88;98879.19;6243225;22;20006;-93
2023/01/01 09:39:51;;;;;;;0.70;0.55;;;;;;;12.82;40.96;98889.94;6242021;22;20579;-93
2023/01/01 09:42:26;;;;;;;0.65;0.40;;;;;;;12.86;41.07;98888.38;6242596;22;19995;-92
2023/01/01 09:45:14;;;;;;;0.45;0.40;;;;;;;12.74;40.92;98883.06;6269490;22;20014;-93
2023/01/01 09:47:44;;;;;;;1.77;0.70;;;;;;;12.79;40.84;98887.72;6244889;22;20012;-92
2023/01/01 09:50:43;;;;;;;0.82;0.50;;;;;;;12.81;41.10;98887.47;6243934;22;20008;-93
2023/01/01 09:53:30;;;;;;;0.75;0.50;;;;;;;12.81;40.91;98895.53;6178805;22;20014;-93
2023/01/01 09:56:03;;;;;;;2.00;0.70;;;;;;;12.75;40.68;98883.91;6220793;22;20000;-93
2023/01/01 09:58:33;;;;;;;2.08;0.82;;;;;;;12.83;40.71;98902.28;6220022;22;20014;-93
2023/01/01 10:01:27;;;;;;;1.73;0.65;;;;;;;12.80;41.12;98913.47;6244482;22;20368;-93
2023/01/01 10:04:27;;;;;;;1.52;0.77;;;;;;;12.81;40.78;98909.72;6249517;22;20011;-93
2023/01/01 10:07:00;;;;;;;1.75;0.68;;;;;;;12.70;41.03;98903.38;6222343;22;20044;-92
2023/01/01 10:09:56;;;;;;;2.97;0.80;;;;;;;12.70;41.06;98898.00;6271310;22;20082;-93
2023/01/01 10:12:47;;;;;;;1.15;0.52;;;;;;;12.83;40.82;98912.19;6248549;22;20018;-93
2023/01/01 10:15:17;;;;;;;2.17;0.77;;;;;;;12.81;40.73;98907.06;6214837;22;20187;-93
2023/01/01 10:17:47;;;;;;;1.20;0.60;;;;;;;12.84;40.67;98917.31;6221373;22;20395;-93
2023/01/01 10:20:20;;;;;;;1.90;0.70;;;;;;;12.87;40.80;98926.75;6220932;22;20004;-93
2023/01/01 10:22:48;;;;;;;3.17;0.77;;;;;;;12.81;40.80;98919.66;6270740;22;20067;-93
2023/01/01 10:25:21;;;;;;;0.90;0.60;;;;;;;12.83;40.77;98918.38;6220704;22;20083;-92
2023/01/01 10:28:04;;;;;;;1.83;0.70;;;;;;;12.83;40.62;98923.75;6219719;22;20090;-93
2023/01/01 10:30:30;;;;;;;1.33;0.63;;;;;;;12.73;40.68;98908.25;6223088;22;20031;-92
2023/01/01 10:32:56;;;;;;;1.77;0.60;;;;;;;12.79;40.86;98917.19;6220304;22;20011;-92
2023/01/01 10:35:30;;;;;;;1.75;0.68;;;;;;;12.82;40.73;98930.13;6245613;22;20057;-92
2023/01/01 10:38:02;;;;;;;1.08;0.60;;;;;;;12.80;41.03;98934.94;6246931;22;20000;-93
2023/01/01 10:40:28;;;;;;;0.82;0.57;;;;;;;12.77;40.76;98930.84;6220223;22;20000;-92
2023/01/01 10:42:58;;;;;;;2.47;0.60;;;;;;;12.81;40.67;98941.09;6219980;22;20091;-91
2023/01/01 10:45:42;;;;;;;1.92;0.60;;;;;;;12.82;40.67;98926.66;6245821;22;20004;-92
2023/01/01 10:48:15;;;;;;;2.10;0.68;;;;;;;12.81;40.66;98936.53;6218049;22;20011;-92
2023/01/01 10:50:44;;;;;;;1.60;0.60;;;;;;;12.88;40.76;98947.13;6218841;22;20100;-92
2023/01/01 10:53:21;;;;;;;1.42;0.63;;;;;;;12.82;40.47;98948.91;6268886;22;20007;-92
2023/01/01 10:55:50;;;;;;;1.80;0.57;;;;;;;12.80;40.61;98952.88;6244482;22;20008;-92
2023/01/01 10:58:46;;;;;;;2.65;0.60;;;;;;;12.82;40.55;98959.63;6220014;22;20439;-92
2023/01/01 11:01:20;;;;;;;1.67;0.80;;;;;;;12.84;40.86;98956.72;6218786;22;20118;-92
2023/01/01 11:03:53;;;;;;;0.95;0.65;;;;;;;12.90;40.46;98964.63;6243961;22;20053;-92
2023/01/01 11:06:38;;;;;;;1.10;0.68;;;;;;;12.89;40.47;98954.94;6241162;22;20495;-92
2023/01/01 11:09:05;;;;;;;;;;;;;;;12.88;40.74;98958.69;6242908;22;20011;-92
2023/01/01 11:11:34;;;;;;;1.52;0.60;;;;;;;12.87;40.58;98954.38;6267865;22;19915;-92
2023/01/01 11:14:03;;;;;;;0.98;0.63;;;;;;;12.82;40.70;98948.91;6267474;22;20015;-92
2023/01/01 11:16:28;;;;;;;1.85;0.60;;;;;;;12.77;40.38;98946.13;6215578;22;20067;-92
2023/01/01 11:19:05;;;;;;;0.75;0.40;;;;;;;12.84;40.63;98951.34;6217410;22;20069;-92
2023/01/01 11:21:31;;;;;;;1.35;0.57;;;;;;;12.91;40.48;98958.19;6217166;22;20008;-92
2023/01/01 11:24:17;;;;;;;1.40;0.60;;;;;;;12.89;40.57;98964.88;6242885;22;20498;-92
2023/01/01 11:26:43;;;;;;;2.05;0.60;;;;;;;12.85;40.54;98964.53;6220079;22;20041;-91
2023/01/01 11:29:15;;;;;;;0.57;0.50;;;;;;;12.90;40.75;98964.63;6216920;22;20008;-91
2023/01/01 11:32:06;;;;;;;2.22;0.70;;;;;;;12.88;40.76;98982.00;6268690;22;20014;-92
2023/01/01 11:34:36;;;;;;;1.83;0.60;;;;;;;12.84;40.46;98973.59;6245071;22;20015;-92
2023/01/01 11:37:26;;;;;;;1.65;0.55;;;;;;;12.71;40.56;98957.78;6220242;22;20023;-91
2023/01/01 11:39:53;;;;;;;1.00;0.50;;;;;;;12.77;40.32;98967.56;6227712;22;20030;-92
2023/01/01 11:42:21;;;;;;;1.13;0.50;;;;;;;12.65;40.33;98954.19;6219171;22;20003;-91
2023/01/01 11:44:49;;;;;;;1.55;0.60;;;;;;;12.66;40.46;98945.09;6220257;22;20003;-92
2023/01/01 11:47:38;;;;;;;1.02;0.60;;;;;;;12.75;40.42;98958.97;6219630;22;20429;-90
2023/01/01 11:50:13;;;;;;;1.27;0.60;;;;;;;12.94;40.54;98989.91;6217157;22;20095;-90
2023/01/01 11:52:40;;;;;;;1.63;0.60;;;;;;;12.84;40.44;98984.34;6269597;22;20371;-90
2023/01/01 15:17:18;;;;;;;0.68;0.65;;;;;;;12.84;39.61;99149.75;6247066;22;1546503;-89
2023/01/01 15:20:18;;;;;;;1.27;0.77;;;;;;;13.06;39.81;99185.66;6213641;23;20012;-91
2023/01/01 15:22:46;;;;;;;0.93;0.60;;;;;;;12.81;39.29;99152.91;6213077;23;20012;-91
2023/01/01 15:25:16;;;;;;;1.15;0.60;;;;;;;13.10;39.17;99204.78;6188718;23;20008;-91
2023/01/01 15:27:45;;;;;;;1.48;0.60;;;;;;;13.16;39.17;99211.94;6187040;23;20012;-91
2023/01/01 15:30:30;;;;;;;1.40;0.70;;;;;;;13.15;38.89;99208.41;6188531;23;20008;-91
2023/01/01 15:33:05;;;;;;;1.15;0.70;;;;;;;12.90;38.94;99171.09;6213635;23;20004;-91
2023/01/01 15:35:31;;;;;;;1.73;0.60;;;;;;;12.78;39.06;99159.56;6190485;23;20401;-87
2023/01/01 15:38:02;;;;;;;1.20;0.60;;;;;;;13.08;39.73;99183.56;6241047;22;20101;-87
2023/01/01 15:40:30;;;;;;;0.85;0.60;;;;;;;13.19;39.82;99208.75;6239346;23;20341;-87
2023/01/01 15:42:59;;;;;;;4.10;1.70;;;;;;;13.38;39.55;99204.09;6239450;23;20602;-89
2023/01/01 15:45:24;;;;;;;3.38;0.80;;;;;;;13.25;41.48;99194.41;6240032;22;20008;-95
2023/01/01 15:47:54;;;;;;;5.75;1.13;;;;;;;13.02;39.49;99162.22;6239554;23;20034;-94
2023/01/01 15:50:25;;;;;;;2.03;0.80;;;;;;;13.03;39.73;99166.56;6215316;23;20055;-95
2023/01/01 15:52:56;;;;;;;2.65;0.80;;;;;;;12.96;40.03;99169.34;6191722;23;20012;-95
2023/01/01 15:55:21;;;;;;;137.82;9.27;;;;;;;12.54;38.62;99167.56;6215086;23;20016;-92
2023/01/01 15:57:48;;;;;;;4.43;1.02;;;;;;;12.74;38.75;99161.06;6190488;23;20085;-89
2023/01/01 16:00:28;;;;;;;8.48;0.90;;;;;;;12.85;40.18;99221.09;6189733;23;20444;-88
2023/01/01 16:02:56;;;;;;;3.10;0.98;;;;;;;12.70;41.02;99235.75;6216397;23;20161;-90
2023/01/01 16:05:25;;;;;;;6.47;1.40;;;;;;;12.53;41.67;99219.50;6189385;23;20015;-90
2023/01/01 16:08:03;;;;;;;6.63;1.00;;;;;;;12.52;42.32;99239.34;6189621;23;20389;-89
2023/01/01 16:10:34;;;;;;;9.23;1.10;;;;;;;12.32;42.45;99212.00;6214908;23;20461;-92
2023/01/01 16:13:00;;;;;;;12.45;1.10;;;;;;;12.25;42.93;99212.09;6215330;23;20082;-91